Time;durP1;ratioP1;P1;durP2;ratioP2;P2;SDS_P1;SDS_P2;PMS_P1;PMS_P2;Temp;Humidity;BMP_temperature;BMP_pressure;BME280_temperature;BME280_humidity;BME280_pressure;Samples;Min_cycle;Max_cycle;Signal;HPM_P1;HPM_P2
2022/11/17 00:00:17;;;;;;;1.73;1.03;;;6.40;92.50;;;;;;5090168;28;20710;-64
2022/11/17 00:02:45;;;;;;;1.10;1.10;;;6.40;92.40;;;;;;5085457;28;20272;-64
2022/11/17 00:05:13;;;;;;;1.00;1.00;;;6.40;92.30;;;;;;5099297;28;20684;-64
2022/11/17 00:07:42;;;;;;;1.00;1.00;;;6.40;92.10;;;;;;5105159;28;20198;-64
2022/11/17 00:10:09;;;;;;;1.03;1.03;;;6.40;92.10;;;;;;5091183;28;20199;-64
2022/11/17 00:15:20;;;;;;;1.20;1.10;;;6.50;92.30;;;;;;5088243;28;20543;-63
2022/11/17 00:21:17;;;;;;;1.33;1.23;;;6.50;92.40;;;;;;5093817;28;20295;-64
2022/11/17 00:23:22;;;;;;;2.70;1.20;;;6.40;92.20;;;;;;5108581;28;20651;-64
2022/11/17 00:25:49;;;;;;;1.40;1.30;;;6.50;92.30;;;;;;5098678;28;20192;-65
2022/11/17 00:28:16;;;;;;;1.30;1.20;;;6.50;92.20;;;;;;5104232;28;20237;-65
2022/11/17 00:36:15;;;;;;;1.27;1.17;;;6.40;92.00;;;;;;5103604;28;20188;-65
2022/11/17 00:38:42;;;;;;;1.23;1.13;;;6.40;91.80;;;;;;5097584;28;20235;-64
2022/11/17 00:41:09;;;;;;;1.50;1.40;;;6.30;91.80;;;;;;5102750;28;20281;-63
2022/11/17 00:43:36;;;;;;;3.80;1.20;;;6.30;92.00;;;;;;5090382;28;20202;-65
2022/11/17 00:46:03;;;;;;;1.30;1.20;;;6.30;92.10;;;;;;5099695;28;20291;-64
2022/11/17 00:48:31;;;;;;;1.30;1.20;;;6.30;92.10;;;;;;5098811;28;20257;-64
2022/11/17 00:51:02;;;;;;;1.30;1.20;;;6.30;91.90;;;;;;5101787;28;20196;-63
2022/11/17 00:53:29;;;;;;;1.30;1.20;;;6.30;91.80;;;;;;5101541;28;20199;-65
2022/11/17 00:55:56;;;;;;;1.43;1.33;;;6.30;91.80;;;;;;5090949;28;20379;-65
2022/11/17 00:58:23;;;;;;;1.30;1.20;;;6.20;91.60;;;;;;5108661;28;20325;-65
2022/11/17 01:00:50;;;;;;;1.43;1.33;;;6.20;91.70;;;;;;5097120;28;20277;-64
2022/11/17 01:03:17;;;;;;;0.97;0.97;;;6.20;91.70;;;;;;5103102;28;20260;-65
2022/11/17 01:05:46;;;;;;;1.00;1.00;;;6.20;91.80;;;;;;5108267;28;20187;-64
2022/11/17 01:08:13;;;;;;;1.30;1.20;;;6.20;91.70;;;;;;5077287;28;21233;-65
2022/11/17 01:10:40;;;;;;;1.20;1.10;;;6.20;91.80;;;;;;5089519;28;20271;-65
2022/11/17 01:13:07;;;;;;;2.53;1.20;;;6.20;91.60;;;;;;5094955;28;20277;-65
2022/11/17 01:15:34;;;;;;;1.27;1.17;;;6.20;91.50;;;;;;5081971;27;20564;-65
2022/11/17 01:18:01;;;;;;;1.40;1.37;;;6.20;91.50;;;;;;5083489;28;20211;-65
2022/11/17 01:20:28;;;;;;;1.50;1.40;;;6.20;91.40;;;;;;5109470;28;20281;-65
2022/11/17 01:22:56;;;;;;;1.40;1.30;;;6.10;91.40;;;;;;5085869;28;20316;-64
2022/11/17 01:25:23;;;;;;;1.50;1.40;;;6.10;91.40;;;;;;5104472;27;20244;-64
2022/11/17 01:27:50;;;;;;;1.30;1.20;;;6.10;91.40;;;;;;5109450;27;20202;-65
2022/11/17 01:30:17;;;;;;;1.20;1.10;;;6.10;91.50;;;;;;5101312;27;20232;-65
2022/11/17 01:32:45;;;;;;;2.03;1.63;;;6.20;91.50;;;;;;5101224;27;20533;-65
2022/11/17 01:35:12;;;;;;;4.80;2.60;;;6.20;91.40;;;;;;5114525;27;20233;-64
2022/11/17 01:37:39;;;;;;;2.77;1.87;;;6.20;91.40;;;;;;5096206;28;20588;-65
2022/11/17 01:40:09;;;;;;;1.63;1.53;;;6.20;91.30;;;;;;5112777;27;20241;-66
2022/11/17 01:42:36;;;;;;;1.43;1.40;;;6.20;91.00;;;;;;5089124;28;20284;-66
2022/11/17 01:45:16;;;;;;;1.30;1.30;;;6.10;90.80;;;;;;5113470;27;20242;-65
2022/11/17 01:47:47;;;;;;;1.37;1.30;;;6.10;91.10;;;;;;5113215;27;20214;-64
2022/11/17 01:50:24;;;;;;;1.60;1.50;;;6.10;91.20;;;;;;5113005;27;20615;-65
2022/11/17 01:52:53;;;;;;;1.30;1.20;;;6.10;91.10;;;;;;5115158;28;20196;-64
2022/11/17 01:55:24;;;;;;;1.20;1.10;;;6.10;91.10;;;;;;5113148;27;20233;-64
2022/11/17 01:57:55;;;;;;;1.37;1.27;;;6.10;91.10;;;;;;5112614;27;20187;-64
2022/11/17 02:00:22;;;;;;;1.10;1.10;;;6.10;90.90;;;;;;5114831;27;20194;-64
2022/11/17 02:02:51;;;;;;;1.03;1.03;;;6.20;91.10;;;;;;5113590;27;20216;-64
2022/11/17 02:05:32;;;;;;;1.40;1.10;;;6.20;91.10;;;;;;5115148;28;20202;-65
2022/11/17 02:08:04;;;;;;;1.40;1.30;;;6.30;91.10;;;;;;5112721;27;20730;-64
2022/11/17 02:10:34;;;;;;;2.43;1.00;;;6.30;91.20;;;;;;5115447;27;20315;-65
2022/11/17 02:13:02;;;;;;;1.00;1.00;;;6.30;91.20;;;;;;5112949;27;20213;-64
2022/11/17 02:15:29;;;;;;;2.27;1.70;;;6.40;91.30;;;;;;5106952;27;20271;-65
2022/11/17 02:17:58;;;;;;;5.70;1.83;;;6.40;91.20;;;;;;5111426;27;20203;-65
2022/11/17 02:20:39;;;;;;;2.10;1.73;;;6.40;91.20;;;;;;5115041;27;20278;-65
2022/11/17 02:23:53;;;;;;;3.40;1.40;;;6.40;91.00;;;;;;5111212;27;20199;-65
2022/11/17 02:26:43;;;;;;;2.10;1.63;;;6.40;91.10;;;;;;5089260;28;20226;-65
2022/11/17 02:29:16;;;;;;;1.47;1.37;;;6.40;91.10;;;;;;5093184;28;20248;-64
2022/11/17 02:31:50;;;;;;;1.33;1.07;;;6.40;91.10;;;;;;5108507;28;20658;-64
2022/11/17 02:34:27;;;;;;;1.50;1.27;;;6.40;91.20;;;;;;5101940;28;20223;-64
2022/11/17 02:36:58;;;;;;;1.27;1.17;;;6.40;90.80;;;;;;5089285;28;20681;-64
2022/11/17 02:39:31;;;;;;;1.00;0.90;;;6.40;90.60;;;;;;5111424;27;20241;-64
2022/11/17 02:42:06;;;;;;;0.90;0.90;;;6.30;90.70;;;;;;5111328;28;20198;-65
2022/11/17 02:44:38;;;;;;;1.63;1.30;;;6.40;90.80;;;;;;5110996;28;20195;-65
2022/11/17 02:47:10;;;;;;;1.20;1.10;;;6.40;90.80;;;;;;5109871;28;20224;-63
2022/11/17 02:49:41;;;;;;;1.20;1.10;;;6.40;90.70;;;;;;5102234;28;20190;-65
2022/11/17 02:52:09;;;;;;;1.30;1.10;;;6.40;90.90;;;;;;5106363;28;20214;-65
2022/11/17 02:54:36;;;;;;;1.20;1.10;;;6.40;90.90;;;;;;5106546;28;20652;-65
2022/11/17 02:57:03;;;;;;;1.30;1.20;;;6.50;90.90;;;;;;5111481;28;20260;-65
2022/11/17 02:59:33;;;;;;;1.07;1.07;;;6.50;90.90;;;;;;5105174;28;20236;-65
2022/11/17 03:02:33;;;;;;;1.47;1.37;;;6.50;90.70;;;;;;5106744;28;20225;-64
2022/11/17 03:05:08;;;;;;;1.17;1.00;;;6.50;90.30;;;;;;5086400;28;20258;-65
2022/11/17 03:07:58;;;;;;;1.10;1.10;;;6.50;90.40;;;;;;5104433;28;20226;-63
2022/11/17 03:10:30;;;;;;;1.47;1.37;;;6.40;90.40;;;;;;5110439;28;20184;-64
2022/11/17 03:13:06;;;;;;;1.20;1.10;;;6.40;90.30;;;;;;5103613;28;20665;-65
2022/11/17 03:15:45;;;;;;;1.83;1.60;;;6.30;90.40;;;;;;5110498;28;20290;-65
2022/11/17 03:18:20;;;;;;;1.30;1.20;;;6.40;90.50;;;;;;5106705;28;20191;-66
2022/11/17 03:20:56;;;;;;;1.60;1.50;;;6.40;90.60;;;;;;5109100;28;20199;-65
2022/11/17 03:23:32;;;;;;;2.90;1.87;;;6.40;90.50;;;;;;5110095;28;20233;-65
2022/11/17 03:26:05;;;;;;;3.43;2.10;;;6.40;90.40;;;;;;5107841;28;20191;-64
2022/11/17 03:28:33;;;;;;;2.23;1.80;;;6.40;90.40;;;;;;5108559;28;20194;-66
2022/11/17 03:31:05;;;;;;;1.40;1.30;;;6.40;90.40;;;;;;5091139;28;20191;-66
2022/11/17 03:33:34;;;;;;;1.70;1.50;;;6.40;90.50;;;;;;5104635;28;20199;-67
2022/11/17 03:36:07;;;;;;;3.00;1.63;;;6.50;90.50;;;;;;5106325;28;20439;-64
2022/11/17 03:38:37;;;;;;;2.23;1.63;;;6.50;90.40;;;;;;5107087;28;20337;-65
2022/11/17 03:41:07;;;;;;;2.33;1.70;;;6.50;90.40;;;;;;5105874;28;20536;-64
2022/11/17 03:43:36;;;;;;;3.17;2.17;;;6.40;90.30;;;;;;5107023;27;20219;-64
2022/11/17 03:46:07;;;;;;;2.67;1.60;;;6.30;90.30;;;;;;5102897;28;20703;-64
2022/11/17 03:48:40;;;;;;;1.47;1.37;;;6.20;90.40;;;;;;5107522;28;20218;-64
2022/11/17 03:51:12;;;;;;;1.93;1.37;;;6.10;90.60;;;;;;5106983;28;20198;-63
2022/11/17 03:53:39;;;;;;;2.03;1.47;;;6.10;90.60;;;;;;5108287;28;20218;-66
2022/11/17 03:56:17;;;;;;;2.23;1.63;;;6.10;90.60;;;;;;5107424;28;20217;-65
2022/11/17 03:58:54;;;;;;;1.87;1.50;;;6.10;90.70;;;;;;5106138;28;20202;-65
2022/11/17 04:01:22;;;;;;;2.93;1.73;;;6.20;91.10;;;;;;5106211;28;20194;-65
2022/11/17 04:03:51;;;;;;;1.63;1.50;;;6.20;90.60;;;;;;5105132;28;20289;-64
2022/11/17 04:06:18;;;;;;;2.07;1.77;;;6.20;90.60;;;;;;5107266;28;20312;-64
2022/11/17 04:08:46;;;;;;;2.23;1.87;;;6.20;90.70;;;;;;5108286;28;20231;-64
2022/11/17 04:16:42;;;;;;;1.20;1.20;;;6.20;90.70;;;;;;5108247;28;20357;-65
2022/11/17 04:19:11;;;;;;;1.20;1.20;;;6.10;90.60;;;;;;5088043;28;20333;-65
2022/11/17 04:21:38;;;;;;;1.20;1.10;;;6.10;90.60;;;;;;5107513;27;20189;-63
2022/11/17 04:24:06;;;;;;;1.20;1.20;;;6.10;90.70;;;;;;5107619;28;20276;-64
2022/11/17 04:29:17;;;;;;;1.20;1.20;;;6.10;90.70;;;;;;5104007;28;20190;-64
2022/11/17 04:31:44;;;;;;;1.20;1.20;;;6.10;90.70;;;;;;5107191;28;20194;-64
2022/11/17 04:34:13;;;;;;;1.50;1.40;;;6.10;90.70;;;;;;5089201;28;20220;-65
2022/11/17 04:36:43;;;;;;;1.60;1.40;;;6.10;90.70;;;;;;5106100;28;20278;-64
2022/11/17 04:39:11;;;;;;;1.73;1.27;;;6.10;90.70;;;;;;5108799;28;20208;-65
2022/11/17 04:41:52;;;;;;;1.60;1.50;;;6.00;90.70;;;;;;5109142;28;20602;-64
2022/11/17 04:44:21;;;;;;;1.50;1.40;;;6.00;90.70;;;;;;5107953;28;20182;-64
2022/11/17 04:46:49;;;;;;;1.50;1.40;;;6.00;90.70;;;;;;5107847;28;20205;-64
2022/11/17 04:49:19;;;;;;;1.13;1.10;;;6.00;90.80;;;;;;5086871;28;20186;-65
2022/11/17 04:51:46;;;;;;;1.90;1.70;;;5.90;90.80;;;;;;5090859;28;20243;-65
2022/11/17 04:54:15;;;;;;;1.77;1.67;;;5.90;90.80;;;;;;5108082;28;20214;-64
2022/11/17 04:56:43;;;;;;;1.73;1.40;;;5.90;90.80;;;;;;5106412;28;20250;-65
2022/11/17 04:59:10;;;;;;;1.60;1.50;;;5.80;90.70;;;;;;5107168;28;20297;-65
2022/11/17 05:01:38;;;;;;;4.30;2.87;;;5.80;90.60;;;;;;5107601;28;20294;-66
2022/11/17 05:04:07;;;;;;;4.47;2.97;;;5.80;90.80;;;;;;5097415;28;20229;-64
2022/11/17 05:06:38;;;;;;;1.70;1.60;;;5.70;90.80;;;;;;5088959;28;20244;-64
2022/11/17 05:09:08;;;;;;;1.97;1.70;;;5.70;90.70;;;;;;5091665;28;20197;-64
2022/11/17 05:14:21;;;;;;;1.50;1.40;;;5.60;90.80;;;;;;5088071;28;20665;-63
2022/11/17 05:17:08;;;;;;;1.40;1.30;;;5.60;90.90;;;;;;5087078;28;20231;-63
2022/11/17 05:19:36;;;;;;;1.63;1.40;;;5.60;91.00;;;;;;5070505;28;20213;-63
2022/11/17 05:23:52;;;;;;;1.43;1.30;;;5.60;91.10;;;;;;5091322;28;20216;-66
2022/11/17 05:24:53;;;;;;;2.50;1.27;;;5.50;91.20;;;;;;5090965;28;20558;-64
2022/11/17 05:27:21;;;;;;;1.57;1.43;;;5.60;91.70;;;;;;5089845;28;20624;-64
2022/11/17 05:29:48;;;;;;;1.77;1.67;;;5.60;91.30;;;;;;5090530;28;20193;-64
2022/11/17 05:32:15;;;;;;;1.87;1.50;;;5.70;91.60;;;;;;5087053;28;20200;-64
2022/11/17 05:34:43;;;;;;;2.70;1.97;;;5.70;91.30;;;;;;5090629;28;20270;-64
2022/11/17 05:37:11;;;;;;;4.20;2.83;;;5.80;91.30;;;;;;5088930;28;20634;-64
2022/11/17 05:39:38;;;;;;;10.77;6.10;;;5.80;91.30;;;;;;5089846;28;20229;-64
2022/11/17 05:42:05;;;;;;;6.80;4.70;;;5.90;91.30;;;;;;5070091;28;20538;-64
2022/11/17 05:44:32;;;;;;;5.03;3.57;;;5.90;91.30;;;;;;5086968;28;20759;-63
2022/11/17 05:46:59;;;;;;;3.03;2.83;;;5.90;91.30;;;;;;5090208;28;20230;-64
2022/11/17 05:49:26;;;;;;;3.30;2.13;;;6.00;91.30;;;;;;5071526;28;20577;-64
2022/11/17 05:51:53;;;;;;;2.87;2.67;;;6.00;91.30;;;;;;5087607;28;20191;-63
2022/11/17 05:54:22;;;;;;;2.10;2.00;;;6.10;91.30;;;;;;5090683;28;20270;-64
2022/11/17 05:56:52;;;;;;;1.60;1.50;;;6.10;91.20;;;;;;5088786;28;20271;-64
2022/11/17 05:59:24;;;;;;;1.43;1.33;;;6.00;91.10;;;;;;5072615;28;20613;-65
2022/11/17 06:01:59;;;;;;;1.13;1.13;;;6.10;91.50;;;;;;5091059;28;20678;-65
2022/11/17 06:04:26;;;;;;;1.60;1.50;;;6.00;91.10;;;;;;5102612;28;20237;-64
2022/11/17 06:06:57;;;;;;;1.40;1.30;;;6.00;91.10;;;;;;5110293;28;20195;-65
2022/11/17 06:09:28;;;;;;;2.13;2.03;;;6.00;91.10;;;;;;5104793;28;20190;-65
2022/11/17 06:11:55;;;;;;;2.03;1.83;;;6.00;91.00;;;;;;5097992;28;20282;-65
2022/11/17 06:14:22;;;;;;;1.77;1.60;;;5.90;90.90;;;;;;5085184;28;20557;-65
2022/11/17 06:16:55;;;;;;;1.87;1.77;;;5.90;91.10;;;;;;5107490;27;20247;-65
2022/11/17 06:19:27;;;;;;;1.60;1.50;;;5.90;91.10;;;;;;5085938;28;20614;-65
2022/11/17 06:21:54;;;;;;;2.10;1.90;;;5.90;91.10;;;;;;5108719;28;20210;-65
2022/11/17 06:24:22;;;;;;;2.13;1.60;;;5.90;91.20;;;;;;5097479;28;20194;-65
2022/11/17 06:26:51;;;;;;;1.70;1.60;;;5.90;91.20;;;;;;5099935;28;20698;-65
2022/11/17 06:29:18;;;;;;;1.70;1.60;;;5.90;91.00;;;;;;5092953;28;20562;-65
2022/11/17 06:31:46;;;;;;;2.10;1.80;;;5.90;91.00;;;;;;5101340;28;20210;-64
2022/11/17 06:34:14;;;;;;;2.63;2.00;;;5.90;91.00;;;;;;5096076;28;20195;-64
2022/11/17 06:36:41;;;;;;;3.57;2.77;;;5.90;91.00;;;;;;5085255;28;20345;-64
2022/11/17 06:39:08;;;;;;;2.70;2.37;;;5.90;90.60;;;;;;5106978;27;20592;-64
2022/11/17 06:41:36;;;;;;;2.67;2.10;;;5.80;90.60;;;;;;5105251;28;20194;-64
2022/11/17 06:44:05;;;;;;;1.90;1.80;;;5.70;90.50;;;;;;5084834;28;20205;-63
2022/11/17 06:46:36;;;;;;;1.90;1.80;;;5.70;90.60;;;;;;5109540;27;21712;-64
2022/11/17 06:49:05;;;;;;;1.70;1.60;;;5.70;90.60;;;;;;5104149;28;20660;-65
2022/11/17 06:51:32;;;;;;;2.40;2.20;;;5.70;90.70;;;;;;5110226;28;20671;-64
2022/11/17 06:53:59;;;;;;;5.83;3.03;;;5.60;90.60;;;;;;5107544;28;20189;-64
2022/11/17 06:56:27;;;;;;;6.07;3.40;;;5.60;90.70;;;;;;5108245;28;20205;-65
2022/11/17 06:58:55;;;;;;;11.07;4.00;;;5.60;90.80;;;;;;5107500;28;20655;-65
2022/11/17 07:01:23;;;;;;;5.73;2.77;;;5.70;90.90;;;;;;5107550;27;20548;-65
2022/11/17 07:03:50;;;;;;;5.43;2.50;;;5.70;90.90;;;;;;5088019;28;20257;-65
2022/11/17 07:06:18;;;;;;;2.07;1.80;;;5.80;90.90;;;;;;5086156;28;20275;-65
2022/11/17 07:08:46;;;;;;;3.13;2.60;;;5.80;91.00;;;;;;5074167;28;20683;-65
2022/11/17 07:11:15;;;;;;;2.20;2.00;;;5.90;90.90;;;;;;5080559;28;20263;-65
2022/11/17 07:13:42;;;;;;;2.47;1.80;;;5.80;90.70;;;;;;5086479;28;20214;-64
2022/11/17 07:16:12;;;;;;;2.03;1.80;;;5.80;90.80;;;;;;5086737;28;20251;-65
2022/11/17 07:18:41;;;;;;;1.70;1.60;;;5.90;90.90;;;;;;5087019;28;20793;-64
2022/11/17 07:21:10;;;;;;;1.83;1.73;;;5.90;90.90;;;;;;5087679;28;20225;-65
2022/11/17 07:23:39;;;;;;;4.63;1.93;;;5.90;90.90;;;;;;5087668;28;20226;-64
2022/11/17 07:26:07;;;;;;;2.20;2.03;;;5.90;90.90;;;;;;5087771;28;20203;-64
2022/11/17 07:28:35;;;;;;;1.80;1.40;;;5.90;91.00;;;;;;5088242;28;20663;-65
2022/11/17 07:31:02;;;;;;;3.27;2.10;;;5.90;90.90;;;;;;5086795;28;20645;-64
2022/11/17 07:33:29;;;;;;;2.00;1.90;;;5.90;91.00;;;;;;5087788;28;20652;-64
2022/11/17 07:36:02;;;;;;;1.83;1.73;;;6.00;91.00;;;;;;5087128;28;20222;-65
2022/11/17 07:38:32;;;;;;;1.77;1.67;;;5.90;90.90;;;;;;5087396;28;20556;-65
2022/11/17 07:40:59;;;;;;;2.33;2.13;;;5.90;91.30;;;;;;5085599;28;20201;-64
2022/11/17 07:43:26;;;;;;;2.83;2.40;;;5.90;91.00;;;;;;5086056;28;20195;-65
2022/11/17 07:45:54;;;;;;;3.30;2.60;;;5.90;91.10;;;;;;5086700;28;20272;-64
2022/11/17 07:48:21;;;;;;;2.60;2.40;;;5.90;91.10;;;;;;5087277;28;20202;-64
2022/11/17 07:50:48;;;;;;;2.20;2.00;;;5.90;91.10;;;;;;5084610;28;20264;-65
2022/11/17 07:53:17;;;;;;;2.10;1.80;;;6.00;91.10;;;;;;5087545;28;20199;-65
2022/11/17 07:55:44;;;;;;;1.70;1.60;;;6.00;91.10;;;;;;5087837;28;20190;-65
2022/11/17 07:58:11;;;;;;;1.90;1.80;;;6.00;91.10;;;;;;5087273;28;20281;-66
2022/11/17 08:00:38;;;;;;;2.70;2.50;;;6.00;91.10;;;;;;5087177;28;20474;-64
2022/11/17 08:03:05;;;;;;;2.27;2.07;;;6.00;91.10;;;;;;5087614;28;20198;-65
2022/11/17 08:05:34;;;;;;;2.10;1.93;;;5.90;91.00;;;;;;5104215;28;20191;-65
2022/11/17 08:08:01;;;;;;;2.07;1.70;;;5.80;90.90;;;;;;5078757;28;20209;-65
2022/11/17 08:10:30;;;;;;;2.00;1.90;;;5.80;90.90;;;;;;5099377;28;20198;-63
2022/11/17 08:13:01;;;;;;;2.40;2.20;;;5.80;90.90;;;;;;5107759;28;20219;-64
2022/11/17 08:15:28;;;;;;;2.20;2.10;;;5.70;91.00;;;;;;5102033;27;20671;-65
2022/11/17 08:17:57;;;;;;;2.40;2.20;;;5.60;90.70;;;;;;5104391;28;20674;-64
2022/11/17 08:20:25;;;;;;;2.50;2.30;;;5.60;90.70;;;;;;5096524;28;20461;-64
2022/11/17 08:22:53;;;;;;;2.23;2.07;;;5.60;91.10;;;;;;5098484;27;20198;-64
2022/11/17 08:25:22;;;;;;;3.77;2.60;;;5.60;90.80;;;;;;5085365;28;20213;-64
2022/11/17 08:27:54;;;;;;;2.83;2.50;;;5.60;90.80;;;;;;5095183;28;20281;-64
2022/11/17 08:30:21;;;;;;;2.50;2.30;;;5.60;90.90;;;;;;5103061;27;20687;-64
2022/11/17 08:32:50;;;;;;;3.97;2.03;;;5.60;90.90;;;;;;5094221;28;20264;-65
2022/11/17 08:35:18;;;;;;;3.60;2.10;;;5.60;90.90;;;;;;5088723;28;20285;-65
2022/11/17 08:37:45;;;;;;;2.10;1.90;;;5.70;91.00;;;;;;5106225;28;20256;-66
2022/11/17 08:40:57;;;;;;;3.73;1.83;;;5.70;90.90;;;;;;5086067;28;20269;-65
2022/11/17 08:43:25;;;;;;;2.10;2.00;;;5.80;90.80;;;;;;5105834;28;21021;-65
2022/11/17 08:45:52;;;;;;;2.30;2.10;;;5.80;90.70;;;;;;5106339;28;20201;-65
2022/11/17 08:48:20;;;;;;;1.97;1.87;;;5.70;90.70;;;;;;5086848;28;20590;-65
2022/11/17 08:50:47;;;;;;;2.13;1.70;;;5.70;90.50;;;;;;5098603;28;20198;-65
2022/11/17 08:53:16;;;;;;;4.57;2.03;;;5.80;90.60;;;;;;5102165;28;20330;-64
2022/11/17 08:55:43;;;;;;;2.27;1.60;;;5.80;90.60;;;;;;5106656;28;20676;-64
2022/11/17 08:58:11;;;;;;;1.70;1.60;;;5.80;90.60;;;;;;5106518;28;20230;-65
2022/11/17 09:00:40;;;;;;;1.40;1.40;;;5.80;90.30;;;;;;5103326;28;20280;-65
2022/11/17 09:03:07;;;;;;;2.10;1.80;;;5.90;90.40;;;;;;5103741;28;20190;-65
2022/11/17 09:05:38;;;;;;;2.70;1.80;;;5.90;90.30;;;;;;5085607;28;20212;-65
2022/11/17 09:08:05;;;;;;;1.80;1.70;;;5.90;90.00;;;;;;5092918;28;20665;-66
2022/11/17 09:10:32;;;;;;;3.30;1.93;;;5.90;89.70;;;;;;5102149;28;20558;-66
2022/11/17 09:12:59;;;;;;;2.20;2.10;;;5.90;89.70;;;;;;5101620;28;20692;-65
2022/11/17 09:15:26;;;;;;;1.80;1.70;;;5.90;89.20;;;;;;5100622;28;20247;-65
2022/11/17 09:17:55;;;;;;;1.93;1.83;;;5.90;89.30;;;;;;5104793;28;20286;-65
2022/11/17 09:20:22;;;;;;;1.90;1.80;;;5.90;88.50;;;;;;5098894;28;20225;-65
2022/11/17 09:22:49;;;;;;;2.20;2.00;;;5.90;88.40;;;;;;5104958;28;20225;-66
2022/11/17 09:25:16;;;;;;;2.50;2.30;;;5.80;88.10;;;;;;5100528;28;20319;-65
2022/11/17 09:27:43;;;;;;;2.77;2.40;;;5.80;87.80;;;;;;5083010;28;20201;-64
2022/11/17 09:30:11;;;;;;;2.77;2.57;;;5.80;88.30;;;;;;5100524;28;20224;-65
2022/11/17 09:32:38;;;;;;;2.83;2.37;;;5.80;88.70;;;;;;5103478;28;20198;-65
2022/11/17 09:35:08;;;;;;;2.40;2.20;;;5.80;88.70;;;;;;5100689;28;20220;-64
2022/11/17 09:37:35;;;;;;;2.23;2.03;;;5.90;88.20;;;;;;5105382;28;20284;-66
2022/11/17 09:40:03;;;;;;;2.60;2.40;;;5.90;87.70;;;;;;5107136;28;20188;-66
2022/11/17 09:43:05;;;;;;;2.23;2.13;;;5.90;87.30;;;;;;5103440;28;20531;-64
2022/11/17 09:46:10;;;;;;;2.10;1.90;;;5.90;87.40;;;;;;5106755;28;20200;-64
2022/11/17 09:49:05;;;;;;;3.73;1.80;;;5.90;87.50;;;;;;5106657;27;20665;-64
2022/11/17 09:51:36;;;;;;;2.33;2.23;;;5.90;87.60;;;;;;5102479;28;20189;-65
2022/11/17 09:54:10;;;;;;;2.07;1.90;;;6.00;87.30;;;;;;5103716;28;20651;-65
2022/11/17 09:56:38;;;;;;;2.93;2.63;;;6.00;86.90;;;;;;5105489;27;20216;-63
2022/11/17 09:59:10;;;;;;;2.00;1.90;;;5.90;86.40;;;;;;5097496;28;20247;-64
2022/11/17 10:01:38;;;;;;;3.23;2.63;;;6.00;86.80;;;;;;5101882;28;20201;-63
2022/11/17 10:04:10;;;;;;;2.10;2.00;;;6.10;86.90;;;;;;5100077;28;20222;-63
2022/11/17 10:06:41;;;;;;;5.13;2.47;;;6.10;87.10;;;;;;5081898;28;20304;-63
2022/11/17 10:09:18;;;;;;;3.53;2.30;;;6.30;87.50;;;;;;5091100;28;20667;-65
2022/11/17 10:11:47;;;;;;;2.57;2.37;;;6.30;86.10;;;;;;5080189;28;20216;-63
2022/11/17 10:14:15;;;;;;;2.97;2.40;;;6.30;85.10;;;;;;5092247;28;20200;-64
2022/11/17 10:16:54;;;;;;;2.23;2.03;;;6.20;84.70;;;;;;5080729;28;20647;-64
2022/11/17 10:19:26;;;;;;;2.63;2.10;;;6.20;85.30;;;;;;5086338;28;20333;-65
2022/11/17 10:21:58;;;;;;;3.20;2.77;;;6.30;85.50;;;;;;5080327;28;20759;-65
2022/11/17 10:24:39;;;;;;;3.97;2.40;;;6.30;84.80;;;;;;5098248;28;20206;-65
2022/11/17 10:27:22;;;;;;;3.07;2.53;;;6.40;84.10;;;;;;5088630;28;20219;-65
2022/11/17 10:30:26;;;;;;;2.37;2.27;;;6.50;83.70;;;;;;5078948;28;20721;-65
2022/11/17 10:32:58;;;;;;;2.80;2.60;;;6.50;83.20;;;;;;5088286;28;20189;-66
2022/11/17 10:35:27;;;;;;;8.27;3.93;;;6.60;83.50;;;;;;5090225;28;20191;-64
2022/11/17 10:37:58;;;;;;;5.67;3.50;;;6.70;83.70;;;;;;5094562;28;20199;-66
2022/11/17 10:40:30;;;;;;;4.23;3.00;;;6.80;83.80;;;;;;5083680;28;20253;-64
2022/11/17 10:43:01;;;;;;;6.57;2.97;;;7.00;84.30;;;;;;5086318;28;20189;-65
2022/11/17 10:45:29;;;;;;;4.70;2.57;;;7.10;83.50;;;;;;5066415;28;20216;-65
2022/11/17 10:48:18;;;;;;;3.87;3.10;;;7.10;83.40;;;;;;5078393;28;20706;-64
2022/11/17 10:50:52;;;;;;;3.17;2.80;;;7.20;83.30;;;;;;5083434;28;20200;-66
2022/11/17 10:53:36;;;;;;;2.50;2.30;;;7.20;82.80;;;;;;5085480;28;20190;-64
2022/11/17 10:56:10;;;;;;;7.77;4.30;;;7.20;83.10;;;;;;5077311;28;20204;-65
2022/11/17 10:59:01;;;;;;;3.43;2.80;;;7.20;82.50;;;;;;5082483;28;20188;-66
2022/11/17 11:01:31;;;;;;;3.30;3.00;;;7.20;82.40;;;;;;5082152;28;20213;-64
2022/11/17 11:03:58;;;;;;;3.33;3.10;;;7.20;82.00;;;;;;5085250;28;20232;-64
2022/11/17 11:06:28;;;;;;;2.70;2.50;;;7.10;81.70;;;;;;5089667;28;20220;-63
2022/11/17 11:08:59;;;;;;;3.70;3.23;;;7.10;81.30;;;;;;5087190;28;20301;-64
2022/11/17 11:11:41;;;;;;;3.57;3.27;;;7.10;81.60;;;;;;5088162;28;20180;-65
2022/11/17 11:14:20;;;;;;;2.90;2.70;;;7.00;81.10;;;;;;5080385;28;20299;-64
2022/11/17 11:16:49;;;;;;;2.53;2.33;;;6.90;81.20;;;;;;5077650;28;20672;-65
2022/11/17 11:19:18;;;;;;;3.53;2.70;;;6.90;81.50;;;;;;5088032;28;20201;-64
2022/11/17 11:22:06;;;;;;;3.00;2.80;;;6.80;81.80;;;;;;5091447;28;20270;-64
2022/11/17 11:24:42;;;;;;;2.77;2.57;;;6.90;81.90;;;;;;5086803;28;20200;-64
2022/11/17 11:27:26;;;;;;;3.23;2.93;;;6.90;81.90;;;;;;5088905;28;20271;-65
2022/11/17 11:30:01;;;;;;;4.50;3.40;;;6.90;82.10;;;;;;5086305;28;20215;-65
2022/11/17 11:32:36;;;;;;;4.83;3.30;;;6.90;82.40;;;;;;5075108;28;20310;-65
2022/11/17 11:35:32;;;;;;;3.70;3.40;;;6.90;82.40;;;;;;5088089;28;20620;-62
2022/11/17 11:38:07;;;;;;;3.13;2.80;;;6.90;82.50;;;;;;5089927;28;20193;-63
2022/11/17 11:40:38;;;;;;;3.20;2.87;;;6.90;82.30;;;;;;5087918;28;20302;-65
2022/11/17 11:43:19;;;;;;;3.27;2.97;;;6.90;82.50;;;;;;5094028;28;20189;-63
2022/11/17 11:45:50;;;;;;;2.90;2.70;;;7.00;82.60;;;;;;5087307;28;20191;-64
2022/11/17 11:48:22;;;;;;;2.90;2.57;;;7.10;82.50;;;;;;5071414;28;20291;-64
2022/11/17 11:50:54;;;;;;;3.20;2.57;;;7.10;82.20;;;;;;5087465;28;20644;-65
2022/11/17 11:53:28;;;;;;;3.20;2.90;;;7.10;82.20;;;;;;5086842;28;20196;-63
2022/11/17 11:56:07;;;;;;;3.20;2.90;;;7.10;82.00;;;;;;5090533;28;20246;-64
2022/11/17 11:58:35;;;;;;;3.10;2.90;;;7.10;81.90;;;;;;5090013;28;20196;-64
2022/11/17 12:01:05;;;;;;;3.43;3.10;;;7.10;82.00;;;;;;5085910;28;20223;-64
2022/11/17 12:03:36;;;;;;;3.00;2.80;;;7.10;81.80;;;;;;5086587;28;20333;-65
2022/11/17 12:09:06;;;;;;;3.33;2.70;;;7.00;81.90;;;;;;5090278;28;20185;-65
2022/11/17 12:14:22;;;;;;;2.03;1.90;;;7.10;81.90;;;;;;5080130;28;20550;-64
2022/11/17 12:16:49;;;;;;;3.60;2.20;;;7.10;82.90;;;;;;5060048;28;20204;-64
2022/11/17 12:19:49;;;;;;;3.80;3.13;;;7.10;82.20;;;;;;5085219;28;20234;-64
2022/11/17 12:22:40;;;;;;;4.83;3.17;;;7.20;82.20;;;;;;5084102;28;20201;-64
2022/11/17 12:25:16;;;;;;;3.63;2.70;;;7.20;82.00;;;;;;5093432;28;20201;-64
2022/11/17 12:27:48;;;;;;;4.07;2.67;;;7.20;82.30;;;;;;5082480;28;20290;-63
2022/11/17 12:30:51;;;;;;;5.53;3.23;;;7.20;82.10;;;;;;5084379;28;20566;-64
2022/11/17 12:33:18;;;;;;;3.50;2.30;;;7.20;82.30;;;;;;5078340;28;20698;-64
2022/11/17 12:35:46;;;;;;;4.33;2.57;;;7.20;82.20;;;;;;5093153;28;20477;-64
2022/11/17 12:38:41;;;;;;;2.80;2.13;;;7.20;82.40;;;;;;5083080;28;20196;-65
2022/11/17 12:41:34;;;;;;;10.10;6.03;;;7.20;82.50;;;;;;5076734;28;20208;-65
2022/11/17 12:44:48;;;;;;;8.80;6.00;;;7.30;82.40;;;;;;5086242;28;20199;-63
2022/11/17 12:47:19;;;;;;;6.03;4.47;;;7.30;82.20;;;;;;5078944;28;20253;-64
2022/11/17 12:49:55;;;;;;;4.67;4.23;;;7.30;82.10;;;;;;5077153;28;20211;-64
2022/11/17 12:52:30;;;;;;;4.23;3.43;;;7.30;82.20;;;;;;5083119;28;20258;-64
2022/11/17 12:55:03;;;;;;;4.53;4.00;;;7.40;82.30;;;;;;5080650;28;20203;-65
2022/11/17 12:57:33;;;;;;;3.50;3.20;;;7.30;82.00;;;;;;5072877;28;20208;-64
2022/11/17 13:00:09;;;;;;;4.20;3.10;;;7.30;82.10;;;;;;5084026;28;20203;-64
2022/11/17 13:03:09;;;;;;;4.07;2.83;;;7.30;82.00;;;;;;5080445;28;20570;-65
2022/11/17 13:05:37;;;;;;;4.23;3.10;;;7.30;82.10;;;;;;5082710;28;20201;-65
2022/11/17 13:08:20;;;;;;;3.23;2.90;;;7.30;82.00;;;;;;5085433;28;20678;-65
2022/11/17 13:10:48;;;;;;;3.20;2.60;;;7.50;82.30;;;;;;5084996;28;20196;-64
2022/11/17 13:13:18;;;;;;;2.47;2.13;;;7.70;82.10;;;;;;5084445;28;20602;-65
2022/11/17 13:15:49;;;;;;;4.20;2.33;;;7.80;82.10;;;;;;5083865;28;20666;-64
2022/11/17 13:18:29;;;;;;;3.23;2.70;;;8.00;82.20;;;;;;5085672;28;20199;-64
2022/11/17 13:20:57;;;;;;;2.87;2.40;;;8.10;82.10;;;;;;5085966;28;20189;-65
2022/11/17 13:23:25;;;;;;;2.40;1.90;;;8.10;81.40;;;;;;5087052;28;20209;-65
2022/11/17 13:26:09;;;;;;;1.80;1.70;;;8.00;81.70;;;;;;5085442;28;20204;-65
2022/11/17 13:28:38;;;;;;;4.03;2.80;;;7.90;81.90;;;;;;5084792;28;20204;-64
2022/11/17 13:31:12;;;;;;;2.57;2.37;;;7.90;82.10;;;;;;5084105;28;20188;-64
2022/11/17 13:33:40;;;;;;;2.03;1.80;;;7.90;82.20;;;;;;5085427;28;20204;-65
2022/11/17 13:36:16;;;;;;;2.13;1.90;;;7.80;82.10;;;;;;5084010;28;20269;-64
2022/11/17 13:38:56;;;;;;;2.90;2.60;;;7.80;82.40;;;;;;5085545;28;20216;-64
2022/11/17 13:41:25;;;;;;;4.33;3.20;;;7.80;82.10;;;;;;5085521;28;20212;-64
2022/11/17 13:43:53;;;;;;;3.77;2.43;;;7.70;81.70;;;;;;5084633;28;20212;-64
2022/11/17 13:46:22;;;;;;;3.07;2.77;;;7.50;81.80;;;;;;5084777;28;20193;-64
2022/11/17 13:48:50;;;;;;;2.17;1.97;;;7.60;82.20;;;;;;5084686;28;20540;-64